createdAt,value
2017-06-09T00:00:53.429Z,44.18
2017-06-09T00:02:03.690Z,44.85
2017-06-09T00:03:13.322Z,44.27
2017-06-09T00:04:23.583Z,44.18
2017-06-09T00:05:33.847Z,44.85
2017-06-09T00:06:43.795Z,44.18
2017-06-09T00:07:54.055Z,45.04
2017-06-09T00:09:04.319Z,44.27
2017-06-09T00:10:14.477Z,44.66
2017-06-09T00:11:23.802Z,45.04
2017-06-09T00:12:34.065Z,44.85
2017-06-09T00:13:44.015Z,44.37
2017-06-09T00:14:53.966Z,44.95
2017-06-09T00:16:04.232Z,44.46
2017-06-09T00:17:13.874Z,45.14
2017-06-09T00:18:23.827Z,44.76
2017-06-09T00:19:34.088Z,44.46
2017-06-09T00:20:44.348Z,43.98
2017-06-09T00:21:54.618Z,44.56
2017-06-09T00:23:04.880Z,44.95
2017-06-09T00:24:15.140Z,44.95
2017-06-09T00:25:24.778Z,44.56
2017-06-09T00:26:34.730Z,44.76
2017-06-09T00:27:45.143Z,45.17
2017-06-09T00:28:54.813Z,44.76
2017-06-09T00:30:04.767Z,45.04
2017-06-09T00:31:15.046Z,44.95
2017-06-09T00:32:24.993Z,44.76
2017-06-09T00:33:34.949Z,44.37
2017-06-09T00:34:44.591Z,44.85
2017-06-09T00:35:54.545Z,44.95
2017-06-09T00:37:04.188Z,44.76
2017-06-09T00:38:14.138Z,44.76
2017-06-09T00:39:24.231Z,45.34
2017-06-09T00:40:34.175Z,44.76
2017-06-09T00:41:44.128Z,44.85
2017-06-09T00:42:54.072Z,45.24
2017-06-09T00:44:03.704Z,45.34
2017-06-09T00:45:13.651Z,44.85
2017-06-09T00:46:23.605Z,45.62
2017-06-09T00:47:33.868Z,44.85
2017-06-09T00:48:44.130Z,44.85
2017-06-09T00:49:54.392Z,45.24
2017-06-09T00:51:04.342Z,45.43
2017-06-09T00:52:14.294Z,44.66
2017-06-09T00:53:24.563Z,44.56
2017-06-09T00:54:34.828Z,44.46
2017-06-09T00:55:44.482Z,45.62
2017-06-09T00:56:54.432Z,45.62
2017-06-09T00:58:04.414Z,44.46
2017-06-09T00:59:14.673Z,45.62
2017-06-09T01:00:24.935Z,45.14
2017-06-09T01:01:34.894Z,44.66
2017-06-09T01:02:45.158Z,45.53
2017-06-09T01:03:54.795Z,44.76
2017-06-09T01:05:04.429Z,45.53
2017-06-09T01:06:14.714Z,45.04
2017-06-09T01:07:24.352Z,45.24
2017-06-09T01:08:34.452Z,45.14
2017-06-09T01:09:44.718Z,45.62
2017-06-09T01:10:54.983Z,45.34
2017-06-09T01:12:04.971Z,45.53
2017-06-09T01:13:14.916Z,45.53
2017-06-09T01:14:24.554Z,45.24
2017-06-09T01:15:34.822Z,45.24
2017-06-09T01:16:44.462Z,45.72
2017-06-09T01:17:54.101Z,45.04
2017-06-09T01:19:04.089Z,45.24
2017-06-09T01:20:14.042Z,45.04
2017-06-09T01:21:24.311Z,45.62
2017-06-09T01:22:34.267Z,45.14
2017-06-09T01:23:44.527Z,45.24
2017-06-09T01:24:54.477Z,45.43
2017-06-09T01:26:04.890Z,45.04
2017-06-09T01:27:14.839Z,45.62
2017-06-09T01:28:24.783Z,45.04
2017-06-09T01:29:34.735Z,44.95
2017-06-09T01:30:44.991Z,45.43
2017-06-09T01:31:54.940Z,44.85
2017-06-09T01:33:04.888Z,45.04
2017-06-09T01:34:14.836Z,45.53
2017-06-09T01:35:24.784Z,44.95
2017-06-09T01:36:34.733Z,45.04
2017-06-09T01:37:44.684Z,45.53
2017-06-09T01:38:54.682Z,44.85
2017-06-09T01:40:04.631Z,45.53
2017-06-09T01:41:14.891Z,45.14
2017-06-09T01:42:24.213Z,45.24
2017-06-09T01:43:34.319Z,45.62
2017-06-09T01:44:44.272Z,45.14
2017-06-09T01:45:54.535Z,45.34
2017-06-09T01:47:04.800Z,45.72
2017-06-09T01:48:15.061Z,45.34
2017-06-09T01:49:25.013Z,44.56
2017-06-09T01:50:34.969Z,45.14
2017-06-09T01:51:44.600Z,45.14
2017-06-09T01:52:54.867Z,45.14
2017-06-09T01:54:05.131Z,45.24
2017-06-09T01:55:15.085Z,45.62
2017-06-09T01:56:25.037Z,44.66
2017-06-09T01:57:34.684Z,44.66
2017-06-09T01:58:44.630Z,45.14
2017-06-09T01:59:54.575Z,45.14
2017-06-09T02:01:04.988Z,44.76
2017-06-09T02:02:15.302Z,45.04
2017-06-09T02:03:24.945Z,45.53
2017-06-09T02:04:34.895Z,44.76
2017-06-09T02:05:45.156Z,45.92
2017-06-09T02:06:55.111Z,45.62
2017-06-09T02:08:05.377Z,45.62
2017-06-09T02:09:15.325Z,45.92
2017-06-09T02:10:25.633Z,45.43
2017-06-09T02:11:35.587Z,44.85
2017-06-09T02:12:45.876Z,45.43
2017-06-09T02:13:55.512Z,45.04
2017-06-09T02:15:05.784Z,45.92
2017-06-09T02:16:16.055Z,45.14
2017-06-09T02:17:26.312Z,45.43
2017-06-09T02:18:36.741Z,45.43
2017-06-09T02:19:46.692Z,45.24
2017-06-09T02:20:56.956Z,45.24
2017-06-09T02:22:06.910Z,45.82
2017-06-09T02:23:16.545Z,45.04
2017-06-09T02:24:26.185Z,45.34
2017-06-09T02:25:36.491Z,45.43
2017-06-09T02:26:46.749Z,45.92
2017-06-09T02:27:56.070Z,45.43
2017-06-09T02:29:06.333Z,45.34
2017-06-09T02:30:16.602Z,45.24
2017-06-09T02:31:25.941Z,45.24
2017-06-09T02:32:35.890Z,45.92
2017-06-09T02:33:46.155Z,45.34
2017-06-09T02:34:55.790Z,45.82
2017-06-09T02:36:06.215Z,45.14
2017-06-09T02:37:16.489Z,45.34
2017-06-09T02:38:26.436Z,45.34
2017-06-09T02:39:36.719Z,45.34
2017-06-09T02:40:46.979Z,45.34
2017-06-09T02:41:56.936Z,45.43
2017-06-09T02:43:06.885Z,45.72
2017-06-09T02:44:17.154Z,45.34
2017-06-09T02:45:27.410Z,45.04
2017-06-09T02:46:37.672Z,45.14
2017-06-09T02:47:47.313Z,45.24
2017-06-09T02:48:57.573Z,45.82
2017-06-09T02:50:07.840Z,45.72
2017-06-09T02:51:17.481Z,45.04
2017-06-09T02:52:27.753Z,44.95
2017-06-09T02:53:38.179Z,45.24
2017-06-09T02:54:47.813Z,45.14
2017-06-09T02:55:57.451Z,45.04
2017-06-09T02:57:07.415Z,45.14
2017-06-09T02:58:17.047Z,44.85
2017-06-09T02:59:27.311Z,45.62
2017-06-09T03:00:37.573Z,45.14
2017-06-09T03:01:47.839Z,45.14
2017-06-09T03:02:58.107Z,44.95
2017-06-09T03:04:08.051Z,45.53
2017-06-09T03:05:18.319Z,45.53
2017-06-09T03:06:28.583Z,45.53
2017-06-09T03:07:38.843Z,45.04
2017-06-09T03:08:48.477Z,45.43
2017-06-09T03:09:58.421Z,45.53
2017-06-09T03:11:08.837Z,45.14
2017-06-09T03:12:18.820Z,45.62
2017-06-09T03:13:28.761Z,45.53
2017-06-09T03:14:38.712Z,44.85
2017-06-09T03:15:48.979Z,45.14
2017-06-09T03:16:58.920Z,45.53
2017-06-09T03:18:09.177Z,44.95
2017-06-09T03:19:19.442Z,45.14
2017-06-09T03:20:29.385Z,45.14
2017-06-09T03:21:39.347Z,45.24
2017-06-09T03:22:49.313Z,44.95
2017-06-09T03:23:59.576Z,44.95
2017-06-09T03:25:09.842Z,44.95
2017-06-09T03:26:19.787Z,45.14
2017-06-09T03:27:30.046Z,45.14
2017-06-09T03:28:39.836Z,46.01
2017-06-09T03:29:49.786Z,45.04
2017-06-09T03:31:00.056Z,44.85
2017-06-09T03:32:10.325Z,44.95
2017-06-09T03:33:20.267Z,45.82
2017-06-09T03:34:30.537Z,45.43
2017-06-09T03:35:40.169Z,45.24
2017-06-09T03:36:50.119Z,45.72
2017-06-09T03:37:59.758Z,45.14
2017-06-09T03:39:10.018Z,45.43
2017-06-09T03:40:19.966Z,45.14
2017-06-09T03:41:29.933Z,45.14
2017-06-09T03:42:40.199Z,45.92
2017-06-09T03:43:50.497Z,45.24
2017-06-09T03:45:00.761Z,45.82
2017-06-09T03:46:10.855Z,45.92
2017-06-09T03:47:20.802Z,45.34
2017-06-09T03:48:30.766Z,45.24
2017-06-09T03:49:41.068Z,45.34
2017-06-09T03:50:51.331Z,45.82
2017-06-09T03:52:01.282Z,45.92
2017-06-09T03:53:11.239Z,45.53
2017-06-09T03:54:21.494Z,45.92
2017-06-09T03:55:31.442Z,45.92
2017-06-09T03:56:41.391Z,46.01
2017-06-09T03:57:50.717Z,45.14
2017-06-09T03:59:00.978Z,45.34
2017-06-09T04:00:10.926Z,45.14
2017-06-09T04:01:21.200Z,45.34
2017-06-09T04:02:31.463Z,45.82
2017-06-09T04:03:41.250Z,45.04
2017-06-09T04:04:51.512Z,44.85
2017-06-09T04:06:00.839Z,45.14
2017-06-09T04:07:10.794Z,45.14
2017-06-09T04:08:20.747Z,44.85
2017-06-09T04:09:31.011Z,44.95
2017-06-09T04:10:41.275Z,45.92
2017-06-09T04:11:50.279Z,45.24
2017-06-09T04:12:59.913Z,45.62
2017-06-09T04:14:10.193Z,45.92
2017-06-09T04:15:19.831Z,45.04
2017-06-09T04:16:29.787Z,45.14
2017-06-09T04:17:39.735Z,45.53
2017-06-09T04:18:49.364Z,45.53
2017-06-09T04:19:59.630Z,45.04
2017-06-09T04:21:09.729Z,45.04
2017-06-09T04:22:19.683Z,45.14
2017-06-09T04:23:29.317Z,45.14
2017-06-09T04:24:39.264Z,45.14
2017-06-09T04:25:48.900Z,45.43
2017-06-09T04:26:58.848Z,45.14
2017-06-09T04:28:09.108Z,44.95
2017-06-09T04:29:19.380Z,44.85
2017-06-09T04:30:29.636Z,44.85
2017-06-09T04:31:39.591Z,44.85
2017-06-09T04:32:49.535Z,44.85
2017-06-09T04:33:59.803Z,44.85
2017-06-09T04:35:09.752Z,45.14
2017-06-09T04:36:20.026Z,44.85
2017-06-09T04:37:30.288Z,45.92
2017-06-09T04:38:40.234Z,44.95
2017-06-09T04:39:50.507Z,45.04
2017-06-09T04:41:00.457Z,44.85
2017-06-09T04:42:10.409Z,44.95
2017-06-09T04:43:20.359Z,46.01
2017-06-09T04:44:30.309Z,44.76
2017-06-09T04:45:40.573Z,44.76
2017-06-09T04:46:50.842Z,45.04
2017-06-09T04:48:01.107Z,45.14
2017-06-09T04:49:11.054Z,45.24
2017-06-09T04:50:21.319Z,45.72
2017-06-09T04:51:31.268Z,45.04
2017-06-09T04:52:41.531Z,45.53
2017-06-09T04:53:50.852Z,45.24
2017-06-09T04:55:00.637Z,45.53
2017-06-09T04:56:09.959Z,45.62
2017-06-09T04:57:19.912Z,45.53
2017-06-09T04:58:29.860Z,44.76
2017-06-09T04:59:39.804Z,45.26
2017-06-09T05:00:49.742Z,45.43
2017-06-09T05:02:00.004Z,44.85
2017-06-09T05:03:09.361Z,45.43
2017-06-09T05:04:19.631Z,44.85
2017-06-09T05:05:29.894Z,44.78
2017-06-09T05:06:39.683Z,44.95
2017-06-09T05:07:49.964Z,45.43
2017-06-09T05:08:59.617Z,44.97
2017-06-09T05:10:09.560Z,44.87
2017-06-09T05:11:19.511Z,45.04
2017-06-09T05:12:29.807Z,45.53
2017-06-09T05:13:39.775Z,45.53
2017-06-09T05:14:50.037Z,44.87
2017-06-09T05:15:59.984Z,44.97
2017-06-09T05:17:09.939Z,44.87
2017-06-09T05:18:19.893Z,44.56
2017-06-09T05:19:30.153Z,45.07
2017-06-09T05:20:40.098Z,44.95
2017-06-09T05:21:50.365Z,45.04
2017-06-09T05:23:00.634Z,44.97
2017-06-09T05:24:10.414Z,44.97
2017-06-09T05:25:20.359Z,44.87
2017-06-09T05:26:30.303Z,45.04
2017-06-09T05:27:40.569Z,44.97
2017-06-09T05:28:50.522Z,44.46
2017-06-09T05:30:00.786Z,44.85
2017-06-09T05:31:11.052Z,44.68
2017-06-09T05:32:20.997Z,44.46
2017-06-09T05:33:30.948Z,44.56
2017-06-09T05:34:40.592Z,44.68
2017-06-09T05:35:50.906Z,44.49
2017-06-09T05:37:00.868Z,44.2
2017-06-09T05:38:10.818Z,44.29
2017-06-09T05:39:20.770Z,44.68
2017-06-09T05:40:30.405Z,44.87
2017-06-09T05:41:40.822Z,44.59
2017-06-09T05:42:50.488Z,44.87
2017-06-09T05:44:00.120Z,44.39
2017-06-09T05:45:10.382Z,44.78
2017-06-09T05:46:20.364Z,44.68
2017-06-09T05:47:30.631Z,44.78
2017-06-09T05:48:40.900Z,44.87
2017-06-09T05:49:50.861Z,44.68
2017-06-09T05:51:01.132Z,44.78
2017-06-09T05:52:10.777Z,44.78
2017-06-09T05:53:21.043Z,44.49
2017-06-09T05:54:31.025Z,44.59
2017-06-09T05:55:40.662Z,44.87
2017-06-09T05:56:50.919Z,44.29
2017-06-09T05:58:00.871Z,44.2
2017-06-09T05:59:11.326Z,44.1
2017-06-09T06:00:21.282Z,43.62
2017-06-09T06:01:31.552Z,44.39
2017-06-09T06:02:41.499Z,44.2
2017-06-09T06:03:51.762Z,44.01
2017-06-09T06:05:01.710Z,44.1
2017-06-09T06:06:11.978Z,44.29
2017-06-09T06:07:21.605Z,44.1
2017-06-09T06:08:31.241Z,44.1
2017-06-09T06:09:40.881Z,43.91
2017-06-09T06:10:51.147Z,43.91
2017-06-09T06:12:01.415Z,43.91
2017-06-09T06:13:10.737Z,43.91
2017-06-09T06:14:20.691Z,44.87
2017-06-09T06:15:30.640Z,44.1
2017-06-09T06:16:40.590Z,44.87
2017-06-09T06:17:50.538Z,44.29
2017-06-09T06:19:00.483Z,44.49
2017-06-09T06:20:10.119Z,44.29
2017-06-09T06:21:20.387Z,44.01
2017-06-09T06:22:30.169Z,44.39
2017-06-09T06:23:39.807Z,43.81
2017-06-09T06:24:49.451Z,43.91
2017-06-09T06:25:59.712Z,42.85
2017-06-09T06:27:09.979Z,43.04
2017-06-09T06:28:20.238Z,43.04
2017-06-09T06:29:30.187Z,43.33
2017-06-09T06:30:40.132Z,43.52
2017-06-09T06:31:50.079Z,43.72
2017-06-09T06:33:00.036Z,43.91
2017-06-09T06:34:09.991Z,43.52
2017-06-09T06:35:20.255Z,43.04
2017-06-09T06:36:30.205Z,43.24
2017-06-09T06:37:39.853Z,43.14
2017-06-09T06:38:50.105Z,43.04
2017-06-09T06:40:00.204Z,43.14
2017-06-09T06:41:09.849Z,43.24
2017-06-09T06:42:19.812Z,42.85
2017-06-09T06:43:29.760Z,42.36
2017-06-09T06:44:40.043Z,42.75
2017-06-09T06:45:49.993Z,42.27
2017-06-09T06:46:59.947Z,42.36
2017-06-09T06:48:09.900Z,42.08
2017-06-09T06:49:19.845Z,42.18
2017-06-09T06:50:29.947Z,42.18
2017-06-09T06:51:39.913Z,42.46
2017-06-09T06:52:49.866Z,42.18
2017-06-09T06:54:00.137Z,42.27
2017-06-09T06:55:10.083Z,42.36
2017-06-09T06:56:20.032Z,42.94
2017-06-09T06:57:30.297Z,42.94
2017-06-09T06:58:39.941Z,43.04
2017-06-09T06:59:49.894Z,42.75
2017-06-09T07:00:59.839Z,43.14
2017-06-09T07:02:10.099Z,43.81
2017-06-09T07:03:19.734Z,43.14
2017-06-09T07:04:30.005Z,43.52
2017-06-09T07:05:40.277Z,43.62
2017-06-09T07:06:50.553Z,44.68
2017-06-09T07:08:00.656Z,44.22
2017-06-09T07:09:10.608Z,44.32
2017-06-09T07:10:20.869Z,44.22
2017-06-09T07:11:31.137Z,44.12
2017-06-09T07:12:40.773Z,43.74
2017-06-09T07:13:50.408Z,43.74
2017-06-09T07:15:00.668Z,44.32
2017-06-09T07:16:10.932Z,44.32
2017-06-09T07:17:20.877Z,44.32
2017-06-09T07:18:30.823Z,44.22
2017-06-09T07:19:40.925Z,44.7
2017-06-09T07:20:51.188Z,44.22
2017-06-09T07:22:09.545Z,44.32
2017-06-09T07:23:19.809Z,44.42
2017-06-09T07:24:29.764Z,44.6
2017-06-09T07:25:39.744Z,44.32
2017-06-09T07:26:49.384Z,44.01
2017-06-09T07:27:59.343Z,44.49
2017-06-09T07:29:09.301Z,44.22
2017-06-09T07:30:18.972Z,44.32
2017-06-09T07:31:28.766Z,44.12
2017-06-09T07:32:39.032Z,44.42
2017-06-09T07:33:48.979Z,44.9
2017-06-09T07:34:59.243Z,44.8
2017-06-09T07:36:09.525Z,44.9
2017-06-09T07:37:19.802Z,44.9
2017-06-09T07:38:30.110Z,44.9
2017-06-09T07:39:40.373Z,44.6
2017-06-09T07:40:50.647Z,44.8
2017-06-09T07:42:00.597Z,45.18
2017-06-09T07:43:11.014Z,44.6
2017-06-09T07:44:21.276Z,44.6
2017-06-09T07:45:30.909Z,44.9
2017-06-09T07:46:41.180Z,44.9
2017-06-09T07:47:51.448Z,44.8
2017-06-09T07:49:01.456Z,44.42
2017-06-09T07:50:11.095Z,45.18
2017-06-09T07:51:21.861Z,45.18
2017-06-09T07:52:31.807Z,45.48
2017-06-09T07:53:41.755Z,45.18
2017-06-09T07:54:51.394Z,45.38
2017-06-09T07:56:01.341Z,45.48
2017-06-09T07:57:11.300Z,45.18
2017-06-09T07:58:21.247Z,45.18
2017-06-09T07:59:31.201Z,45.76
2017-06-09T08:00:41.470Z,45.18
2017-06-09T08:01:51.738Z,45.09
2017-06-09T08:03:01.367Z,44.9
2017-06-09T08:04:11.011Z,44.8
2017-06-09T08:05:21.282Z,45.57
2017-06-09T08:06:30.924Z,45.57
2017-06-09T08:07:41.193Z,45.18
2017-06-09T08:08:51.145Z,45
2017-06-09T08:10:01.093Z,45.18
2017-06-09T08:11:10.742Z,45.48
2017-06-09T08:12:20.837Z,44.8
2017-06-09T08:13:30.161Z,45.18
2017-06-09T08:14:39.800Z,45.67
2017-06-09T08:15:49.443Z,45.57
2017-06-09T08:16:59.700Z,45.18
2017-06-09T08:18:09.648Z,45.09
2017-06-09T08:19:19.284Z,45
2017-06-09T08:20:29.558Z,46.06
2017-06-09T08:21:39.564Z,45.09
2017-06-09T08:22:49.840Z,45.48
2017-06-09T08:23:59.864Z,45.09
2017-06-09T08:25:09.503Z,45.96
2017-06-09T08:26:19.779Z,45.09
2017-06-09T08:27:29.729Z,45.18
2017-06-09T08:28:39.678Z,45.18
2017-06-09T08:29:49.783Z,45.09
2017-06-09T08:30:59.729Z,45.67
2017-06-09T08:32:09.992Z,45.09
2017-06-09T08:33:18.997Z,45.96
2017-06-09T08:34:28.635Z,45.57
2017-06-09T08:35:38.622Z,45.96
2017-06-09T08:36:48.579Z,45.28
2017-06-09T08:37:58.225Z,45.38
2017-06-09T08:39:08.499Z,45.48
2017-06-09T08:40:17.822Z,45.28
2017-06-09T08:41:27.918Z,45.38
2017-06-09T08:42:38.179Z,45.86
2017-06-09T08:43:48.132Z,45.38
2017-06-09T08:44:57.765Z,45.38
2017-06-09T08:46:07.401Z,45.96
2017-06-09T08:47:17.039Z,45.38
2017-06-09T08:48:26.674Z,45.38
2017-06-09T08:49:36.303Z,45.38
2017-06-09T08:50:46.583Z,45.38
2017-06-09T08:51:56.857Z,45.86
2017-06-09T08:53:06.644Z,46.15
2017-06-09T08:54:15.965Z,45.38
2017-06-09T08:55:25.286Z,45.38
2017-06-09T08:56:35.551Z,45.86
2017-06-09T08:57:45.534Z,45.48
2017-06-09T08:58:55.526Z,45.48
2017-06-09T09:00:05.836Z,46.34
2017-06-09T09:01:15.791Z,45.57
2017-06-09T09:02:26.050Z,46.15
2017-06-09T09:03:36.313Z,45.48
2017-06-09T09:04:46.265Z,46.15
2017-06-09T09:05:56.538Z,45.38
2017-06-09T09:07:06.808Z,46.06
2017-06-09T09:08:16.759Z,46.15
2017-06-09T09:09:26.702Z,46.15
2017-06-09T09:10:36.172Z,45.67
2017-06-09T09:11:46.434Z,45.28
2017-06-09T09:12:56.379Z,46.15
2017-06-09T09:14:06.648Z,46.15
2017-06-09T09:15:16.597Z,46.25
2017-06-09T09:16:26.862Z,45.86
2017-06-09T09:17:36.810Z,46.25
2017-06-09T09:18:47.074Z,46.34
2017-06-09T09:19:57.021Z,46.15
2017-06-09T09:21:06.972Z,46.06
2017-06-09T09:22:17.070Z,45.76
2017-06-09T09:23:26.711Z,45.28
2017-06-09T09:24:36.976Z,46.34
2017-06-09T09:25:47.241Z,45.28
2017-06-09T09:26:57.505Z,45.76
2017-06-09T09:28:07.453Z,45.96
2017-06-09T09:29:17.719Z,45.38
2017-06-09T09:30:27.354Z,45.76
2017-06-09T09:31:37.618Z,46.15
2017-06-09T09:32:47.888Z,46.15
2017-06-09T09:33:58.152Z,46.15
2017-06-09T09:35:08.108Z,46.15
2017-06-09T09:36:18.373Z,46.15
2017-06-09T09:37:28.637Z,45.96
2017-06-09T09:38:38.276Z,45.96
2017-06-09T09:39:47.907Z,45.96
2017-06-09T09:40:58.215Z,46.15
2017-06-09T09:42:08.479Z,46.25
2017-06-09T09:43:18.744Z,45.18
2017-06-09T09:44:28.710Z,46.25
2017-06-09T09:45:38.813Z,46.15
2017-06-09T09:46:48.447Z,45.96
2017-06-09T09:47:58.406Z,45.96
2017-06-09T09:49:07.732Z,46.15
2017-06-09T09:50:17.368Z,46.15
2017-06-09T09:51:27.010Z,45.86
2017-06-09T09:52:37.273Z,46.25
2017-06-09T09:53:47.536Z,45.96
2017-06-09T09:54:57.491Z,45.96
2017-06-09T09:56:07.762Z,45.76
2017-06-09T09:57:18.168Z,46.15
2017-06-09T09:58:28.434Z,45.96
2017-06-09T09:59:38.697Z,46.06
2017-06-09T10:00:48.956Z,45.96
2017-06-09T10:01:58.591Z,46.25
2017-06-09T10:03:08.865Z,46.25
2017-06-09T10:04:19.126Z,45.86
2017-06-09T10:05:29.073Z,46.25
2017-06-09T10:06:39.019Z,45.96
2017-06-09T10:07:48.967Z,45.86
2017-06-09T10:08:59.236Z,46.15
2017-06-09T10:10:09.187Z,46.15
2017-06-09T10:11:18.826Z,46.15
2017-06-09T10:12:28.775Z,46.15
2017-06-09T10:13:38.728Z,46.15
2017-06-09T10:14:48.672Z,45.86
2017-06-09T10:15:58.322Z,46.06
2017-06-09T10:17:07.656Z,46.06
2017-06-09T10:18:17.923Z,45.96
2017-06-09T10:19:28.192Z,45.96
2017-06-09T10:20:38.299Z,45.86
2017-06-09T10:21:48.252Z,45.96
2017-06-09T10:22:58.201Z,46.15
2017-06-09T10:24:07.835Z,45.86
2017-06-09T10:25:17.791Z,45.86
2017-06-09T10:26:28.054Z,45.86
2017-06-09T10:27:37.692Z,45.96
2017-06-09T10:28:47.638Z,45.96
2017-06-09T10:29:57.591Z,45.86
2017-06-09T10:31:07.226Z,45.86
2017-06-09T10:32:17.486Z,46.06
2017-06-09T10:33:27.432Z,46.25
2017-06-09T10:34:37.064Z,45.86
2017-06-09T10:35:47.329Z,46.15
2017-06-09T10:36:57.277Z,46.15
2017-06-09T10:38:07.092Z,46.25
2017-06-09T10:39:17.353Z,46.15
2017-06-09T10:40:27.617Z,45.67
2017-06-09T10:41:37.563Z,45.86
2017-06-09T10:42:47.826Z,46.25
2017-06-09T10:43:57.460Z,45.76
2017-06-09T10:45:07.734Z,45.76
2017-06-09T10:46:17.683Z,46.06
2017-06-09T10:47:27.940Z,45.86
2017-06-09T10:48:38.200Z,46.15
2017-06-09T10:49:47.988Z,45.67
2017-06-09T10:50:58.256Z,46.15
2017-06-09T10:52:08.199Z,45.86
2017-06-09T10:53:18.143Z,45.48
2017-06-09T10:54:27.460Z,46.34
2017-06-09T10:55:37.733Z,45.86
2017-06-09T10:56:47.684Z,45.76
2017-06-09T10:57:57.954Z,46.73
2017-06-09T10:59:07.597Z,46.83
2017-06-09T11:00:17.559Z,46.06
2017-06-09T11:01:27.660Z,46.15
2017-06-09T11:02:37.293Z,46.06
2017-06-09T11:03:47.550Z,46.54
2017-06-09T11:04:57.816Z,46.44
2017-06-09T11:06:07.761Z,45.96
2017-06-09T11:07:18.023Z,47.02
2017-06-09T11:08:28.288Z,46.64
2017-06-09T11:09:38.237Z,46.92
2017-06-09T11:10:48.188Z,46.54
2017-06-09T11:11:58.451Z,46.44
2017-06-09T11:13:08.404Z,46.44
2017-06-09T11:14:18.042Z,46.73
2017-06-09T11:15:28.313Z,46.73
2017-06-09T11:16:37.634Z,46.64
2017-06-09T11:17:47.589Z,46.73
2017-06-09T11:18:57.372Z,46.73
2017-06-09T11:20:07.631Z,46.73
2017-06-09T11:21:17.268Z,46.54
2017-06-09T11:22:26.591Z,46.92
2017-06-09T11:23:36.856Z,46.64
2017-06-09T11:24:46.497Z,46.64
2017-06-09T11:25:56.457Z,46.64
2017-06-09T11:27:06.726Z,47.02
2017-06-09T11:28:16.676Z,46.73
2017-06-09T11:29:26.312Z,46.73
2017-06-09T11:30:36.261Z,46.64
2017-06-09T11:31:46.513Z,46.92
2017-06-09T11:32:56.776Z,46.83
2017-06-09T11:34:06.726Z,46.54
2017-06-09T11:35:16.982Z,46.92
2017-06-09T11:36:27.071Z,46.73
2017-06-09T11:37:37.023Z,46.44
2017-06-09T11:38:47.284Z,47.02
2017-06-09T11:39:56.644Z,47.02
2017-06-09T11:41:06.908Z,46.92
2017-06-09T11:42:17.174Z,46.83
2017-06-09T11:43:27.116Z,46.73
2017-06-09T11:44:36.757Z,46.54
2017-06-09T11:45:47.022Z,47.5
2017-06-09T11:46:57.281Z,47.12
2017-06-09T11:48:07.378Z,47.12
2017-06-09T11:49:17.635Z,47.22
2017-06-09T11:50:27.597Z,47.02
2017-06-09T11:51:37.547Z,47.12
2017-06-09T11:52:47.496Z,46.73
2017-06-09T11:53:57.760Z,47.12
2017-06-09T11:55:08.020Z,46.73
2017-06-09T11:56:17.655Z,47.31
2017-06-09T11:57:26.969Z,47.41
2017-06-09T11:58:37.222Z,47.5
2017-06-09T11:59:47.486Z,47.12
2017-06-09T12:00:57.124Z,47.7
2017-06-09T12:02:07.075Z,47.41
2017-06-09T12:03:17.334Z,47.5
2017-06-09T12:04:27.742Z,47.12
2017-06-09T12:05:38.004Z,47.41
2017-06-09T12:06:47.953Z,47.5
2017-06-09T12:07:57.602Z,47.5
2017-06-09T12:09:07.239Z,47.31
2017-06-09T12:10:17.508Z,47.12
2017-06-09T12:11:27.761Z,47.31
2017-06-09T12:12:38.023Z,47.5
2017-06-09T12:13:47.653Z,46.92
2017-06-09T12:14:57.601Z,47.22
2017-06-09T12:16:07.549Z,47.8
2017-06-09T12:17:17.852Z,47.41
2017-06-09T12:18:27.799Z,47.41
2017-06-09T12:19:37.146Z,47.41
2017-06-09T12:20:47.095Z,47.5
2017-06-09T12:21:57.505Z,47.22
2017-06-09T12:23:07.456Z,47.41
2017-06-09T12:24:17.713Z,47.02
2017-06-09T12:25:27.339Z,47.5
2017-06-09T12:26:36.978Z,47.31
2017-06-09T12:27:47.622Z,47.22
2017-06-09T12:28:57.568Z,47.8
2017-06-09T12:30:07.209Z,47.31
2017-06-09T12:31:17.162Z,47.6
2017-06-09T12:32:27.131Z,47.5
2017-06-09T12:33:37.079Z,47.6
2017-06-09T12:34:47.027Z,47.41
2017-06-09T12:35:57.293Z,47.31
2017-06-09T12:37:07.232Z,47.31
2017-06-09T12:38:16.868Z,47.6
2017-06-09T12:39:27.128Z,47.6
2017-06-09T12:40:37.397Z,47.5
2017-06-09T12:41:47.657Z,47.8
2017-06-09T12:42:57.921Z,47.5
2017-06-09T12:44:07.865Z,47.22
2017-06-09T12:45:17.962Z,47.41
2017-06-09T12:46:27.907Z,47.8
2017-06-09T12:47:37.851Z,47.5
2017-06-09T12:48:47.801Z,47.7
2017-06-09T12:49:57.437Z,47.5
2017-06-09T12:51:07.075Z,47.7
2017-06-09T12:52:16.080Z,47.89
2017-06-09T12:53:26.349Z,47.31
2017-06-09T12:54:36.296Z,47.7
2017-06-09T12:55:46.562Z,47.5
2017-06-09T12:56:56.973Z,47.12
2017-06-09T12:58:06.921Z,47.6
2017-06-09T12:59:16.546Z,47.5
2017-06-09T13:00:25.871Z,47.31
2017-06-09T13:01:35.512Z,47.7
2017-06-09T13:02:45.777Z,47.41
2017-06-09T13:03:55.724Z,47.7
2017-06-09T13:05:05.363Z,47.41
2017-06-09T13:06:15.312Z,47.6
2017-06-09T13:07:25.260Z,47.7
2017-06-09T13:08:34.889Z,47.99
2017-06-09T13:09:44.833Z,48.18
2017-06-09T13:10:54.148Z,47.89
2017-06-09T13:12:04.410Z,47.8
2017-06-09T13:13:14.368Z,47.41
2017-06-09T13:14:24.007Z,47.89
2017-06-09T13:15:33.957Z,47.31
2017-06-09T13:16:43.909Z,47.22
2017-06-09T13:17:53.547Z,47.5
2017-06-09T13:19:03.495Z,48.28
2017-06-09T13:20:13.453Z,47.89
2017-06-09T13:21:23.399Z,47.7
2017-06-09T13:22:33.351Z,47.6
2017-06-09T13:23:43.318Z,48.08
2017-06-09T13:24:53.442Z,47.89
2017-06-09T13:26:03.389Z,47.89
2017-06-09T13:27:13.332Z,47.99
2017-06-09T13:28:23.587Z,47.7
2017-06-09T13:29:33.535Z,47.6
2017-06-09T13:30:43.804Z,48.18
2017-06-09T13:31:53.756Z,47.8
2017-06-09T13:33:04.012Z,47.8
2017-06-09T13:34:14.286Z,47.7
2017-06-09T13:35:24.551Z,47.6
2017-06-09T13:36:34.499Z,47.41
2017-06-09T13:37:44.755Z,47.8
2017-06-09T13:38:54.071Z,47.6
2017-06-09T13:40:03.715Z,47.6
2017-06-09T13:41:13.659Z,47.7
2017-06-09T13:42:24.069Z,47.5
2017-06-09T13:43:34.332Z,47.7
2017-06-09T13:44:44.286Z,47.6
2017-06-09T13:45:53.603Z,47.41
2017-06-09T13:47:03.866Z,47.5
2017-06-09T13:48:13.819Z,47.5
2017-06-09T13:49:24.089Z,47.41
2017-06-09T13:50:34.040Z,47.6
2017-06-09T13:51:44.308Z,47.31
2017-06-09T13:52:54.261Z,47.5
2017-06-09T13:54:04.407Z,47.7
2017-06-09T13:55:14.696Z,47.53
2017-06-09T13:56:24.653Z,46.83
2017-06-09T13:57:34.912Z,47.31
2017-06-09T13:58:45.176Z,47.41
2017-06-09T13:59:55.129Z,47.12
2017-06-09T14:01:05.400Z,47.22
2017-06-09T14:02:14.720Z,47.41
2017-06-09T14:03:24.977Z,47.12
2017-06-09T14:04:34.930Z,47.31
2017-06-09T14:05:45.341Z,46.92
2017-06-09T14:06:55.610Z,47.5
2017-06-09T14:08:05.876Z,47.12
2017-06-09T14:09:15.510Z,46.92
2017-06-09T14:10:25.458Z,47.5
2017-06-09T14:11:35.722Z,46.83
2017-06-09T14:12:45.689Z,47.02
2017-06-09T14:13:55.320Z,46.73
2017-06-09T14:15:04.955Z,46.73
2017-06-09T14:16:14.591Z,47.12
2017-06-09T14:17:24.686Z,47.31
2017-06-09T14:18:34.961Z,46.83
2017-06-09T14:19:45.217Z,46.83
2017-06-09T14:20:55.160Z,46.83
2017-06-09T14:22:05.100Z,46.83
2017-06-09T14:23:15.399Z,47.02
2017-06-09T14:24:25.662Z,46.73
2017-06-09T14:25:35.605Z,45.96
2017-06-09T14:26:45.567Z,46.64
2017-06-09T14:27:55.841Z,46.54
2017-06-09T14:29:06.104Z,46.92
2017-06-09T14:30:16.372Z,46.83
2017-06-09T14:31:26.643Z,47.02
2017-06-09T14:32:35.965Z,46.92
2017-06-09T14:33:46.065Z,46.73
2017-06-09T14:34:56.330Z,46.54
2017-06-09T14:36:06.284Z,46.34
2017-06-09T14:37:16.258Z,47.14
2017-06-09T14:38:26.216Z,46.92
2017-06-09T14:39:36.162Z,46.83
2017-06-09T14:40:46.428Z,46.73
2017-06-09T14:41:56.378Z,46.56
2017-06-09T14:43:06.351Z,46.54
2017-06-09T14:44:16.615Z,46.54
2017-06-09T14:45:26.407Z,46.73
2017-06-09T14:46:35.725Z,46.44
2017-06-09T14:47:46.021Z,46.85
2017-06-09T14:48:55.672Z,46.83
2017-06-09T14:50:05.940Z,46.83
2017-06-09T14:51:15.886Z,46.92
2017-06-09T14:52:25.209Z,46.73
2017-06-09T14:53:35.480Z,46.64
2017-06-09T14:54:45.429Z,46.73
2017-06-09T14:55:55.698Z,46.75
2017-06-09T14:57:05.366Z,46.92
2017-06-09T14:58:15.324Z,46.73
2017-06-09T14:59:25.275Z,46.83
2017-06-09T15:00:35.232Z,46.54
2017-06-09T15:01:45.196Z,46.73
2017-06-09T15:02:54.987Z,46.54
2017-06-09T15:04:04.627Z,46.54
2017-06-09T15:05:14.906Z,46.54